sensor_id;sensor_type;location;lat;lon;timestamp;temperature;humidity
41435;DHT22;27177;22.262;114.192;2022-07-17T00:00:39;28.00;99.90
41435;DHT22;27177;22.262;114.192;2022-07-17T00:03:09;28.10;99.90
41435;DHT22;27177;22.262;114.192;2022-07-17T00:05:37;28.10;99.90
41435;DHT22;27177;22.262;114.192;2022-07-17T00:08:05;28.10;99.90
41435;DHT22;27177;22.262;114.192;2022-07-17T00:10:40;28.20;99.90
41435;DHT22;27177;22.262;114.192;2022-07-17T00:13:10;28.20;99.90
41435;DHT22;27177;22.262;114.192;2022-07-17T00:15:38;28.20;99.90
41435;DHT22;27177;22.262;114.192;2022-07-17T00:18:05;28.30;99.90
41435;DHT22;27177;22.262;114.192;2022-07-17T00:20:33;28.30;99.90
41435;DHT22;27177;22.262;114.192;2022-07-17T00:23:00;28.30;99.90
41435;DHT22;27177;22.262;114.192;2022-07-17T00:25:27;28.30;99.90
41435;DHT22;27177;22.262;114.192;2022-07-17T00:27:54;28.40;99.90
41435;DHT22;27177;22.262;114.192;2022-07-17T00:30:21;28.40;99.90
41435;DHT22;27177;22.262;114.192;2022-07-17T00:32:48;28.50;99.90
41435;DHT22;27177;22.262;114.192;2022-07-17T00:35:15;28.60;99.90
41435;DHT22;27177;22.262;114.192;2022-07-17T00:37:44;28.60;99.90
41435;DHT22;27177;22.262;114.192;2022-07-17T00:40:14;28.60;99.90
41435;DHT22;27177;22.262;114.192;2022-07-17T00:42:42;28.60;99.90
41435;DHT22;27177;22.262;114.192;2022-07-17T00:45:10;28.70;99.90
41435;DHT22;27177;22.262;114.192;2022-07-17T00:50:25;28.80;99.90
41435;DHT22;27177;22.262;114.192;2022-07-17T00:52:53;28.80;99.90
41435;DHT22;27177;22.262;114.192;2022-07-17T00:55:21;28.90;99.90
41435;DHT22;27177;22.262;114.192;2022-07-17T01:00:17;29.00;99.90
41435;DHT22;27177;22.262;114.192;2022-07-17T01:02:52;29.00;99.90
41435;DHT22;27177;22.262;114.192;2022-07-17T01:05:20;29.00;99.90
41435;DHT22;27177;22.262;114.192;2022-07-17T01:07:49;29.00;99.90
41435;DHT22;27177;22.262;114.192;2022-07-17T01:10:17;28.90;99.90
41435;DHT22;27177;22.262;114.192;2022-07-17T01:12:45;28.90;99.90
41435;DHT22;27177;22.262;114.192;2022-07-17T01:15:13;29.00;99.90
41435;DHT22;27177;22.262;114.192;2022-07-17T01:17:41;29.00;99.90
41435;DHT22;27177;22.262;114.192;2022-07-17T01:20:09;29.00;99.90
41435;DHT22;27177;22.262;114.192;2022-07-17T01:22:45;29.10;99.90
41435;DHT22;27177;22.262;114.192;2022-07-17T01:25:13;29.20;99.90
41435;DHT22;27177;22.262;114.192;2022-07-17T01:27:40;29.10;99.90
41435;DHT22;27177;22.262;114.192;2022-07-17T01:30:08;29.20;99.90
41435;DHT22;27177;22.262;114.192;2022-07-17T01:32:38;29.30;99.90
41435;DHT22;27177;22.262;114.192;2022-07-17T01:35:06;29.30;99.90
41435;DHT22;27177;22.262;114.192;2022-07-17T01:37:34;29.40;99.90
41435;DHT22;27177;22.262;114.192;2022-07-17T01:40:01;29.30;99.90
41435;DHT22;27177;22.262;114.192;2022-07-17T01:42:28;29.20;99.90
41435;DHT22;27177;22.262;114.192;2022-07-17T01:44:56;29.40;99.90
41435;DHT22;27177;22.262;114.192;2022-07-17T01:49:59;29.30;99.90
41435;DHT22;27177;22.262;114.192;2022-07-17T01:52:26;29.40;99.90
41435;DHT22;27177;22.262;114.192;2022-07-17T01:54:54;29.30;99.90
41435;DHT22;27177;22.262;114.192;2022-07-17T01:57:21;29.20;99.90
41435;DHT22;27177;22.262;114.192;2022-07-17T01:59:48;29.10;99.90
41435;DHT22;27177;22.262;114.192;2022-07-17T02:02:16;29.10;99.90
41435;DHT22;27177;22.262;114.192;2022-07-17T02:07:19;29.20;99.90
41435;DHT22;27177;22.262;114.192;2022-07-17T02:09:47;29.30;99.90
41435;DHT22;27177;22.262;114.192;2022-07-17T02:12:14;29.30;99.90
41435;DHT22;27177;22.262;114.192;2022-07-17T02:14:41;29.30;99.90
41435;DHT22;27177;22.262;114.192;2022-07-17T02:17:08;29.20;99.90
41435;DHT22;27177;22.262;114.192;2022-07-17T02:19:35;29.30;99.90
41435;DHT22;27177;22.262;114.192;2022-07-17T02:22:02;29.50;99.90
41435;DHT22;27177;22.262;114.192;2022-07-17T02:27:04;29.50;99.90
41435;DHT22;27177;22.262;114.192;2022-07-17T02:29:31;29.50;99.90
41435;DHT22;27177;22.262;114.192;2022-07-17T02:31:58;29.60;99.90
41435;DHT22;27177;22.262;114.192;2022-07-17T02:34:25;29.70;99.90
41435;DHT22;27177;22.262;114.192;2022-07-17T02:36:52;29.90;99.90
41435;DHT22;27177;22.262;114.192;2022-07-17T02:39:19;29.90;99.90
41435;DHT22;27177;22.262;114.192;2022-07-17T02:42:04;29.80;99.90
41435;DHT22;27177;22.262;114.192;2022-07-17T02:44:33;29.80;99.90
41435;DHT22;27177;22.262;114.192;2022-07-17T02:47:02;29.70;99.90
41435;DHT22;27177;22.262;114.192;2022-07-17T02:49:29;29.60;99.90
41435;DHT22;27177;22.262;114.192;2022-07-17T02:51:56;29.60;99.90
41435;DHT22;27177;22.262;114.192;2022-07-17T02:54:23;29.60;99.90
41435;DHT22;27177;22.262;114.192;2022-07-17T02:56:50;29.50;99.90
41435;DHT22;27177;22.262;114.192;2022-07-17T02:59:17;29.50;99.90
41435;DHT22;27177;22.262;114.192;2022-07-17T03:01:44;29.40;99.90
41435;DHT22;27177;22.262;114.192;2022-07-17T03:04:11;29.30;99.90
41435;DHT22;27177;22.262;114.192;2022-07-17T03:06:38;29.20;99.90
41435;DHT22;27177;22.262;114.192;2022-07-17T03:09:05;29.10;99.90
41435;DHT22;27177;22.262;114.192;2022-07-17T03:11:32;29.20;99.90
41435;DHT22;27177;22.262;114.192;2022-07-17T03:13:58;29.30;99.90
41435;DHT22;27177;22.262;114.192;2022-07-17T03:16:25;29.20;99.90
41435;DHT22;27177;22.262;114.192;2022-07-17T03:18:52;29.20;99.90
41435;DHT22;27177;22.262;114.192;2022-07-17T03:21:19;29.10;99.90
41435;DHT22;27177;22.262;114.192;2022-07-17T03:23:46;29.10;99.90
41435;DHT22;27177;22.262;114.192;2022-07-17T03:26:13;29.10;99.90
41435;DHT22;27177;22.262;114.192;2022-07-17T03:28:40;29.20;99.90
41435;DHT22;27177;22.262;114.192;2022-07-17T03:31:07;29.30;99.90
41435;DHT22;27177;22.262;114.192;2022-07-17T03:33:34;29.40;99.90
41435;DHT22;27177;22.262;114.192;2022-07-17T03:36:01;29.40;99.90
41435;DHT22;27177;22.262;114.192;2022-07-17T03:38:28;29.40;99.90
41435;DHT22;27177;22.262;114.192;2022-07-17T03:40:55;29.50;99.90
41435;DHT22;27177;22.262;114.192;2022-07-17T03:43:22;29.50;99.90
41435;DHT22;27177;22.262;114.192;2022-07-17T03:45:49;29.60;99.90
41435;DHT22;27177;22.262;114.192;2022-07-17T03:48:16;29.60;99.90
41435;DHT22;27177;22.262;114.192;2022-07-17T03:50:43;29.60;99.90
41435;DHT22;27177;22.262;114.192;2022-07-17T03:53:10;29.60;99.90
41435;DHT22;27177;22.262;114.192;2022-07-17T03:55:37;29.70;99.90
41435;DHT22;27177;22.262;114.192;2022-07-17T03:58:05;29.70;99.90
41435;DHT22;27177;22.262;114.192;2022-07-17T04:00:32;29.80;99.90
41435;DHT22;27177;22.262;114.192;2022-07-17T04:02:58;30.00;99.90
41435;DHT22;27177;22.262;114.192;2022-07-17T04:05:26;30.30;99.90
41435;DHT22;27177;22.262;114.192;2022-07-17T04:07:53;30.50;99.90
41435;DHT22;27177;22.262;114.192;2022-07-17T04:10:20;30.40;99.90
41435;DHT22;27177;22.262;114.192;2022-07-17T04:12:47;30.40;99.90
41435;DHT22;27177;22.262;114.192;2022-07-17T04:15:14;30.40;99.90
41435;DHT22;27177;22.262;114.192;2022-07-17T04:18:01;30.40;99.90
41435;DHT22;27177;22.262;114.192;2022-07-17T04:20:28;30.40;99.90
41435;DHT22;27177;22.262;114.192;2022-07-17T04:22:55;30.30;99.90
41435;DHT22;27177;22.262;114.192;2022-07-17T04:25:22;30.30;99.90
41435;DHT22;27177;22.262;114.192;2022-07-17T04:27:49;30.30;99.90
41435;DHT22;27177;22.262;114.192;2022-07-17T04:30:16;30.30;99.90
41435;DHT22;27177;22.262;114.192;2022-07-17T04:32:45;30.30;99.90
41435;DHT22;27177;22.262;114.192;2022-07-17T04:35:12;30.30;99.90
41435;DHT22;27177;22.262;114.192;2022-07-17T04:37:39;30.20;99.90
41435;DHT22;27177;22.262;114.192;2022-07-17T04:40:07;30.10;99.90
41435;DHT22;27177;22.262;114.192;2022-07-17T04:42:34;30.10;99.90
41435;DHT22;27177;22.262;114.192;2022-07-17T04:45:01;30.00;99.90
41435;DHT22;27177;22.262;114.192;2022-07-17T04:47:28;29.90;99.90
41435;DHT22;27177;22.262;114.192;2022-07-17T04:49:55;29.80;99.90
41435;DHT22;27177;22.262;114.192;2022-07-17T04:52:22;30.00;99.90
41435;DHT22;27177;22.262;114.192;2022-07-17T04:54:49;30.10;99.90
41435;DHT22;27177;22.262;114.192;2022-07-17T04:57:15;30.20;99.90
41435;DHT22;27177;22.262;114.192;2022-07-17T04:59:42;30.10;99.90
41435;DHT22;27177;22.262;114.192;2022-07-17T05:02:19;30.20;99.90
41435;DHT22;27177;22.262;114.192;2022-07-17T05:04:46;30.20;99.90
41435;DHT22;27177;22.262;114.192;2022-07-17T05:07:14;30.00;99.90
41435;DHT22;27177;22.262;114.192;2022-07-17T05:09:41;30.00;99.90
41435;DHT22;27177;22.262;114.192;2022-07-17T05:12:08;29.90;99.90
41435;DHT22;27177;22.262;114.192;2022-07-17T05:14:35;29.80;99.90
41435;DHT22;27177;22.262;114.192;2022-07-17T05:17:02;29.80;99.90
41435;DHT22;27177;22.262;114.192;2022-07-17T05:19:29;29.80;99.90
41435;DHT22;27177;22.262;114.192;2022-07-17T05:21:56;29.90;99.90
41435;DHT22;27177;22.262;114.192;2022-07-17T05:24:23;30.00;99.90
41435;DHT22;27177;22.262;114.192;2022-07-17T05:26:50;30.10;99.90
41435;DHT22;27177;22.262;114.192;2022-07-17T05:29:17;30.20;99.90
41435;DHT22;27177;22.262;114.192;2022-07-17T05:31:44;30.30;99.90
41435;DHT22;27177;22.262;114.192;2022-07-17T05:34:11;30.40;99.90
41435;DHT22;27177;22.262;114.192;2022-07-17T05:36:38;30.20;99.90
41435;DHT22;27177;22.262;114.192;2022-07-17T05:39:07;30.30;99.90
41435;DHT22;27177;22.262;114.192;2022-07-17T05:41:34;30.20;99.90
41435;DHT22;27177;22.262;114.192;2022-07-17T05:44:02;30.20;99.90
41435;DHT22;27177;22.262;114.192;2022-07-17T05:46:29;30.30;99.90
41435;DHT22;27177;22.262;114.192;2022-07-17T05:48:56;30.40;99.90
41435;DHT22;27177;22.262;114.192;2022-07-17T05:51:23;30.60;99.90
41435;DHT22;27177;22.262;114.192;2022-07-17T05:53:50;30.80;99.90
41435;DHT22;27177;22.262;114.192;2022-07-17T05:56:16;31.00;99.90
41435;DHT22;27177;22.262;114.192;2022-07-17T05:58:43;31.10;99.90
41435;DHT22;27177;22.262;114.192;2022-07-17T06:01:10;31.00;99.90
41435;DHT22;27177;22.262;114.192;2022-07-17T06:03:37;30.80;99.90
41435;DHT22;27177;22.262;114.192;2022-07-17T06:06:04;30.60;99.90
41435;DHT22;27177;22.262;114.192;2022-07-17T06:08:32;30.50;99.90
41435;DHT22;27177;22.262;114.192;2022-07-17T06:10:59;30.30;99.90
41435;DHT22;27177;22.262;114.192;2022-07-17T06:13:25;30.30;99.90
41435;DHT22;27177;22.262;114.192;2022-07-17T06:15:52;30.20;99.90
41435;DHT22;27177;22.262;114.192;2022-07-17T06:18:19;30.20;99.90
41435;DHT22;27177;22.262;114.192;2022-07-17T06:20:46;30.20;99.90
41435;DHT22;27177;22.262;114.192;2022-07-17T06:23:13;30.10;99.90
41435;DHT22;27177;22.262;114.192;2022-07-17T06:25:40;30.10;99.90
41435;DHT22;27177;22.262;114.192;2022-07-17T06:28:07;30.20;99.90
41435;DHT22;27177;22.262;114.192;2022-07-17T06:30:34;30.40;99.90
41435;DHT22;27177;22.262;114.192;2022-07-17T06:33:01;30.30;99.90
41435;DHT22;27177;22.262;114.192;2022-07-17T06:35:28;30.40;99.90
41435;DHT22;27177;22.262;114.192;2022-07-17T06:37:57;30.60;99.90
41435;DHT22;27177;22.262;114.192;2022-07-17T06:40:24;30.60;99.90
41435;DHT22;27177;22.262;114.192;2022-07-17T06:42:51;30.60;99.90
41435;DHT22;27177;22.262;114.192;2022-07-17T06:45:19;30.50;99.90
41435;DHT22;27177;22.262;114.192;2022-07-17T06:47:46;30.60;99.90
41435;DHT22;27177;22.262;114.192;2022-07-17T06:50:13;30.60;99.90
41435;DHT22;27177;22.262;114.192;2022-07-17T06:52:40;30.70;99.90
41435;DHT22;27177;22.262;114.192;2022-07-17T06:55:07;30.70;99.90
41435;DHT22;27177;22.262;114.192;2022-07-17T06:57:34;30.70;99.90
41435;DHT22;27177;22.262;114.192;2022-07-17T07:00:01;30.70;99.90
41435;DHT22;27177;22.262;114.192;2022-07-17T07:02:28;30.70;99.90
41435;DHT22;27177;22.262;114.192;2022-07-17T07:04:55;30.70;99.90
41435;DHT22;27177;22.262;114.192;2022-07-17T07:07:22;30.80;99.90
41435;DHT22;27177;22.262;114.192;2022-07-17T07:09:49;30.70;99.90
41435;DHT22;27177;22.262;114.192;2022-07-17T07:12:16;30.50;99.90
41435;DHT22;27177;22.262;114.192;2022-07-17T07:14:43;30.30;99.90
41435;DHT22;27177;22.262;114.192;2022-07-17T07:17:10;30.40;99.90
41435;DHT22;27177;22.262;114.192;2022-07-17T07:19:37;30.30;99.90
41435;DHT22;27177;22.262;114.192;2022-07-17T07:22:04;30.30;99.90
41435;DHT22;27177;22.262;114.192;2022-07-17T07:32:17;30.40;99.90
41435;DHT22;27177;22.262;114.192;2022-07-17T07:34:44;30.30;99.90
41435;DHT22;27177;22.262;114.192;2022-07-17T07:37:11;30.30;99.90
41435;DHT22;27177;22.262;114.192;2022-07-17T07:39:38;30.10;99.90
41435;DHT22;27177;22.262;114.192;2022-07-17T07:42:05;30.10;99.90
41435;DHT22;27177;22.262;114.192;2022-07-17T07:44:33;30.00;99.90
41435;DHT22;27177;22.262;114.192;2022-07-17T07:47:02;29.80;99.90
41435;DHT22;27177;22.262;114.192;2022-07-17T07:49:29;29.80;99.90
41435;DHT22;27177;22.262;114.192;2022-07-17T07:57:08;29.90;99.90
41435;DHT22;27177;22.262;114.192;2022-07-17T07:59:36;29.90;99.90
41435;DHT22;27177;22.262;114.192;2022-07-17T08:02:04;29.80;99.90
41435;DHT22;27177;22.262;114.192;2022-07-17T08:04:31;29.70;99.90
41435;DHT22;27177;22.262;114.192;2022-07-17T08:06:58;29.60;99.90
41435;DHT22;27177;22.262;114.192;2022-07-17T08:09:25;29.60;99.90
41435;DHT22;27177;22.262;114.192;2022-07-17T08:11:52;29.50;99.90
41435;DHT22;27177;22.262;114.192;2022-07-17T08:14:19;29.60;99.90
41435;DHT22;27177;22.262;114.192;2022-07-17T08:16:46;29.70;99.90
41435;DHT22;27177;22.262;114.192;2022-07-17T08:19:13;29.70;99.90
41435;DHT22;27177;22.262;114.192;2022-07-17T08:21:40;29.70;99.90
41435;DHT22;27177;22.262;114.192;2022-07-17T08:24:07;29.70;99.90
41435;DHT22;27177;22.262;114.192;2022-07-17T08:26:34;29.70;99.90
41435;DHT22;27177;22.262;114.192;2022-07-17T08:29:01;29.80;99.90
41435;DHT22;27177;22.262;114.192;2022-07-17T08:31:28;29.80;99.90
41435;DHT22;27177;22.262;114.192;2022-07-17T08:33:55;29.80;99.90
41435;DHT22;27177;22.262;114.192;2022-07-17T08:36:22;29.70;99.90
41435;DHT22;27177;22.262;114.192;2022-07-17T08:38:49;29.70;99.90
41435;DHT22;27177;22.262;114.192;2022-07-17T08:41:16;29.70;99.90
41435;DHT22;27177;22.262;114.192;2022-07-17T08:43:48;29.70;99.90
41435;DHT22;27177;22.262;114.192;2022-07-17T08:46:17;29.70;99.90
41435;DHT22;27177;22.262;114.192;2022-07-17T08:48:46;29.60;99.90
41435;DHT22;27177;22.262;114.192;2022-07-17T08:51:16;29.50;99.90
41435;DHT22;27177;22.262;114.192;2022-07-17T08:53:44;29.50;99.90
41435;DHT22;27177;22.262;114.192;2022-07-17T08:56:11;29.50;99.90
41435;DHT22;27177;22.262;114.192;2022-07-17T08:58:38;29.70;99.90
41435;DHT22;27177;22.262;114.192;2022-07-17T09:01:06;29.70;99.90
41435;DHT22;27177;22.262;114.192;2022-07-17T09:03:33;29.70;99.90
41435;DHT22;27177;22.262;114.192;2022-07-17T09:06:00;29.80;99.90
41435;DHT22;27177;22.262;114.192;2022-07-17T09:08:27;30.00;99.90
41435;DHT22;27177;22.262;114.192;2022-07-17T09:11:05;30.20;99.90
41435;DHT22;27177;22.262;114.192;2022-07-17T09:13:34;30.20;99.90
41435;DHT22;27177;22.262;114.192;2022-07-17T09:16:11;30.20;99.90
41435;DHT22;27177;22.262;114.192;2022-07-17T09:18:51;30.30;99.90
41435;DHT22;27177;22.262;114.192;2022-07-17T09:21:25;30.30;99.90
41435;DHT22;27177;22.262;114.192;2022-07-17T09:24:03;30.30;99.90
41435;DHT22;27177;22.262;114.192;2022-07-17T09:26:34;30.30;99.90
41435;DHT22;27177;22.262;114.192;2022-07-17T09:29:02;30.20;99.90
41435;DHT22;27177;22.262;114.192;2022-07-17T09:31:31;30.10;99.90
41435;DHT22;27177;22.262;114.192;2022-07-17T09:33:59;29.90;99.90
41435;DHT22;27177;22.262;114.192;2022-07-17T09:36:26;29.80;99.90
41435;DHT22;27177;22.262;114.192;2022-07-17T09:38:56;29.70;99.90
41435;DHT22;27177;22.262;114.192;2022-07-17T09:41:25;29.60;99.90
41435;DHT22;27177;22.262;114.192;2022-07-17T09:43:55;29.50;99.90
41435;DHT22;27177;22.262;114.192;2022-07-17T09:46:27;29.50;99.90
41435;DHT22;27177;22.262;114.192;2022-07-17T09:48:59;29.40;99.90
41435;DHT22;27177;22.262;114.192;2022-07-17T09:51:28;29.30;99.90
41435;DHT22;27177;22.262;114.192;2022-07-17T09:54:01;29.20;99.90
41435;DHT22;27177;22.262;114.192;2022-07-17T09:56:30;29.10;99.90
41435;DHT22;27177;22.262;114.192;2022-07-17T09:59:08;29.10;99.90
41435;DHT22;27177;22.262;114.192;2022-07-17T10:01:45;29.00;99.90
41435;DHT22;27177;22.262;114.192;2022-07-17T10:04:16;29.00;99.90
41435;DHT22;27177;22.262;114.192;2022-07-17T10:06:46;29.00;99.90
41435;DHT22;27177;22.262;114.192;2022-07-17T10:09:13;29.00;99.90
41435;DHT22;27177;22.262;114.192;2022-07-17T10:11:40;28.90;99.90
41435;DHT22;27177;22.262;114.192;2022-07-17T10:17:10;28.80;99.90
41435;DHT22;27177;22.262;114.192;2022-07-17T10:19:56;28.80;99.90
41435;DHT22;27177;22.262;114.192;2022-07-17T10:22:24;28.80;99.90
41435;DHT22;27177;22.262;114.192;2022-07-17T10:24:56;28.80;99.90
41435;DHT22;27177;22.262;114.192;2022-07-17T10:27:26;28.70;99.90
41435;DHT22;27177;22.262;114.192;2022-07-17T10:30:05;28.70;99.90
41435;DHT22;27177;22.262;114.192;2022-07-17T10:32:34;28.60;99.90
41435;DHT22;27177;22.262;114.192;2022-07-17T10:35:06;28.60;99.90
41435;DHT22;27177;22.262;114.192;2022-07-17T10:37:39;28.60;99.90
41435;DHT22;27177;22.262;114.192;2022-07-17T10:40:20;28.50;99.90
41435;DHT22;27177;22.262;114.192;2022-07-17T10:43:01;28.50;99.90
41435;DHT22;27177;22.262;114.192;2022-07-17T10:45:29;28.50;99.90
41435;DHT22;27177;22.262;114.192;2022-07-17T10:50:40;28.50;99.90
41435;DHT22;27177;22.262;114.192;2022-07-17T10:58:41;28.40;99.90
41435;DHT22;27177;22.262;114.192;2022-07-17T11:03:43;28.40;99.90
41435;DHT22;27177;22.262;114.192;2022-07-17T11:06:13;28.40;99.90
41435;DHT22;27177;22.262;114.192;2022-07-17T11:13:47;28.30;99.90
41435;DHT22;27177;22.262;114.192;2022-07-17T11:16:24;28.30;99.90
41435;DHT22;27177;22.262;114.192;2022-07-17T11:18:51;28.30;99.90
41435;DHT22;27177;22.262;114.192;2022-07-17T11:21:18;28.30;99.90
41435;DHT22;27177;22.262;114.192;2022-07-17T11:23:54;28.30;99.90
41435;DHT22;27177;22.262;114.192;2022-07-17T11:26:22;28.30;99.90
41435;DHT22;27177;22.262;114.192;2022-07-17T11:28:50;28.30;99.90
41435;DHT22;27177;22.262;114.192;2022-07-17T11:31:26;28.30;99.90
41435;DHT22;27177;22.262;114.192;2022-07-17T11:33:59;28.20;99.90
41435;DHT22;27177;22.262;114.192;2022-07-17T11:36:43;28.20;99.90
41435;DHT22;27177;22.262;114.192;2022-07-17T11:39:14;28.20;99.90
41435;DHT22;27177;22.262;114.192;2022-07-17T11:41:49;28.10;99.90
41435;DHT22;27177;22.262;114.192;2022-07-17T11:44:21;28.10;99.90
41435;DHT22;27177;22.262;114.192;2022-07-17T11:46:49;28.10;99.90
41435;DHT22;27177;22.262;114.192;2022-07-17T11:49:31;28.10;99.90
41435;DHT22;27177;22.262;114.192;2022-07-17T11:54:46;28.00;99.90
41435;DHT22;27177;22.262;114.192;2022-07-17T11:57:15;28.00;99.90
41435;DHT22;27177;22.262;114.192;2022-07-17T11:59:44;28.00;99.90
41435;DHT22;27177;22.262;114.192;2022-07-17T12:02:16;28.00;99.90
41435;DHT22;27177;22.262;114.192;2022-07-17T12:04:57;28.00;99.90
41435;DHT22;27177;22.262;114.192;2022-07-17T12:07:27;28.00;99.90
41435;DHT22;27177;22.262;114.192;2022-07-17T12:09:54;28.00;99.90
41435;DHT22;27177;22.262;114.192;2022-07-17T12:12:26;28.00;99.90
41435;DHT22;27177;22.262;114.192;2022-07-17T12:14:56;28.00;99.90
41435;DHT22;27177;22.262;114.192;2022-07-17T12:17:41;28.00;99.90
41435;DHT22;27177;22.262;114.192;2022-07-17T12:20:09;27.90;99.90
41435;DHT22;27177;22.262;114.192;2022-07-17T12:22:46;27.90;99.90
41435;DHT22;27177;22.262;114.192;2022-07-17T12:25:33;27.90;99.90
41435;DHT22;27177;22.262;114.192;2022-07-17T12:28:00;27.90;99.90
41435;DHT22;27177;22.262;114.192;2022-07-17T12:30:27;27.90;99.90
41435;DHT22;27177;22.262;114.192;2022-07-17T12:35:30;27.90;99.90
41435;DHT22;27177;22.262;114.192;2022-07-17T12:38:09;27.90;99.90
41435;DHT22;27177;22.262;114.192;2022-07-17T12:40:36;27.90;99.90
41435;DHT22;27177;22.262;114.192;2022-07-17T12:43:03;27.90;99.90
41435;DHT22;27177;22.262;114.192;2022-07-17T12:45:30;27.90;99.90
41435;DHT22;27177;22.262;114.192;2022-07-17T12:47:58;27.90;99.90
41435;DHT22;27177;22.262;114.192;2022-07-17T12:50:25;27.90;99.90
41435;DHT22;27177;22.262;114.192;2022-07-17T12:52:52;28.00;99.90
41435;DHT22;27177;22.262;114.192;2022-07-17T12:55:20;28.00;99.90
41435;DHT22;27177;22.262;114.192;2022-07-17T12:57:47;28.00;99.90
41435;DHT22;27177;22.262;114.192;2022-07-17T13:00:14;28.00;99.90
41435;DHT22;27177;22.262;114.192;2022-07-17T13:02:41;28.00;99.90
41435;DHT22;27177;22.262;114.192;2022-07-17T13:05:08;28.00;99.90
41435;DHT22;27177;22.262;114.192;2022-07-17T13:07:35;28.00;99.90
41435;DHT22;27177;22.262;114.192;2022-07-17T13:10:03;28.00;99.90
41435;DHT22;27177;22.262;114.192;2022-07-17T13:12:30;28.00;99.90
41435;DHT22;27177;22.262;114.192;2022-07-17T13:14:57;28.00;99.90
41435;DHT22;27177;22.262;114.192;2022-07-17T13:17:24;28.00;99.90
41435;DHT22;27177;22.262;114.192;2022-07-17T13:19:51;28.00;99.90
41435;DHT22;27177;22.262;114.192;2022-07-17T13:22:18;28.00;99.90
41435;DHT22;27177;22.262;114.192;2022-07-17T13:24:45;28.00;99.90
41435;DHT22;27177;22.262;114.192;2022-07-17T13:27:12;28.00;99.90
41435;DHT22;27177;22.262;114.192;2022-07-17T13:29:39;28.00;99.90
41435;DHT22;27177;22.262;114.192;2022-07-17T13:32:06;28.00;99.90
41435;DHT22;27177;22.262;114.192;2022-07-17T13:34:33;28.00;99.90
41435;DHT22;27177;22.262;114.192;2022-07-17T13:37:00;28.00;99.90
41435;DHT22;27177;22.262;114.192;2022-07-17T13:39:27;28.00;99.90
41435;DHT22;27177;22.262;114.192;2022-07-17T13:41:54;28.00;99.90
41435;DHT22;27177;22.262;114.192;2022-07-17T13:44:22;28.00;99.90
41435;DHT22;27177;22.262;114.192;2022-07-17T13:46:49;28.00;99.90
41435;DHT22;27177;22.262;114.192;2022-07-17T13:49:16;28.00;99.90
41435;DHT22;27177;22.262;114.192;2022-07-17T13:51:43;28.00;99.90
41435;DHT22;27177;22.262;114.192;2022-07-17T13:54:12;28.00;99.90
41435;DHT22;27177;22.262;114.192;2022-07-17T13:56:39;28.00;99.90
41435;DHT22;27177;22.262;114.192;2022-07-17T13:59:06;28.00;99.90
41435;DHT22;27177;22.262;114.192;2022-07-17T14:01:33;28.00;99.90
41435;DHT22;27177;22.262;114.192;2022-07-17T14:04:03;28.00;99.90
41435;DHT22;27177;22.262;114.192;2022-07-17T14:06:30;28.00;99.90
41435;DHT22;27177;22.262;114.192;2022-07-17T14:08:57;28.00;99.90
41435;DHT22;27177;22.262;114.192;2022-07-17T14:11:24;28.00;99.90
41435;DHT22;27177;22.262;114.192;2022-07-17T14:13:52;28.00;99.90
41435;DHT22;27177;22.262;114.192;2022-07-17T14:16:27;28.00;99.90
41435;DHT22;27177;22.262;114.192;2022-07-17T14:18:54;28.00;99.90
41435;DHT22;27177;22.262;114.192;2022-07-17T14:21:35;28.00;99.90
41435;DHT22;27177;22.262;114.192;2022-07-17T14:24:05;28.00;99.90
41435;DHT22;27177;22.262;114.192;2022-07-17T14:26:32;27.90;99.90
41435;DHT22;27177;22.262;114.192;2022-07-17T14:29:00;27.90;99.90
41435;DHT22;27177;22.262;114.192;2022-07-17T14:31:27;27.90;99.90
41435;DHT22;27177;22.262;114.192;2022-07-17T14:33:55;27.90;99.90
41435;DHT22;27177;22.262;114.192;2022-07-17T14:36:22;27.90;99.90
41435;DHT22;27177;22.262;114.192;2022-07-17T14:38:49;27.90;99.90
41435;DHT22;27177;22.262;114.192;2022-07-17T14:41:16;27.90;99.90
41435;DHT22;27177;22.262;114.192;2022-07-17T14:43:43;27.90;99.90
41435;DHT22;27177;22.262;114.192;2022-07-17T14:46:10;27.90;99.90
41435;DHT22;27177;22.262;114.192;2022-07-17T14:48:38;27.90;99.90
41435;DHT22;27177;22.262;114.192;2022-07-17T14:51:05;27.90;99.90
41435;DHT22;27177;22.262;114.192;2022-07-17T14:53:33;27.80;99.90
41435;DHT22;27177;22.262;114.192;2022-07-17T14:56:00;27.80;99.90
41435;DHT22;27177;22.262;114.192;2022-07-17T14:58:31;27.80;99.90
41435;DHT22;27177;22.262;114.192;2022-07-17T15:00:57;27.80;99.90
41435;DHT22;27177;22.262;114.192;2022-07-17T15:03:24;27.80;99.90
41435;DHT22;27177;22.262;114.192;2022-07-17T15:05:52;27.80;99.90
41435;DHT22;27177;22.262;114.192;2022-07-17T15:08:18;27.80;99.90
41435;DHT22;27177;22.262;114.192;2022-07-17T15:10:45;27.80;99.90
41435;DHT22;27177;22.262;114.192;2022-07-17T15:13:13;27.80;99.90
41435;DHT22;27177;22.262;114.192;2022-07-17T15:15:40;27.80;99.90
41435;DHT22;27177;22.262;114.192;2022-07-17T15:18:07;27.80;99.90
41435;DHT22;27177;22.262;114.192;2022-07-17T15:20:34;27.80;99.90
41435;DHT22;27177;22.262;114.192;2022-07-17T15:23:03;27.80;99.90
41435;DHT22;27177;22.262;114.192;2022-07-17T15:25:30;27.80;99.90
41435;DHT22;27177;22.262;114.192;2022-07-17T15:27:57;27.80;99.90
41435;DHT22;27177;22.262;114.192;2022-07-17T15:30:24;27.80;99.90
41435;DHT22;27177;22.262;114.192;2022-07-17T15:32:51;27.80;99.90
41435;DHT22;27177;22.262;114.192;2022-07-17T15:35:18;27.80;99.90
41435;DHT22;27177;22.262;114.192;2022-07-17T15:37:45;27.70;99.90
41435;DHT22;27177;22.262;114.192;2022-07-17T15:40:12;27.80;99.90
41435;DHT22;27177;22.262;114.192;2022-07-17T15:42:39;27.70;99.90
41435;DHT22;27177;22.262;114.192;2022-07-17T15:45:06;27.80;99.90
41435;DHT22;27177;22.262;114.192;2022-07-17T15:47:33;27.80;99.90
41435;DHT22;27177;22.262;114.192;2022-07-17T15:50:00;27.80;99.90
41435;DHT22;27177;22.262;114.192;2022-07-17T15:52:27;27.80;99.90
41435;DHT22;27177;22.262;114.192;2022-07-17T15:54:54;27.80;99.90
41435;DHT22;27177;22.262;114.192;2022-07-17T15:57:21;27.80;99.90
41435;DHT22;27177;22.262;114.192;2022-07-17T15:59:48;27.80;99.90